Flight Track Log - Related Links

Times and Time Zones

All times are in EDT time to prevent confusion due to time zone crossing. See the CPZ5750 flight status page for this flight to view local times or setup timezone preferences in your user account.

Time Position Orientation Groundspeed Altitude Reporting Facility
EDT Latitude Longitude Course Direction KTS MPH feet Rate Location/Type
Wed 04:49:02 PM 44.9000 -93.2333 70° East 165 190 2,000  Level Minneapolis TRACON
Wed 04:50:02 PM 44.9500 -93.2667 335° Northwest 204 235 3,500 1,820 Climbing Minneapolis TRACON
Wed 04:51:04 PM 44.9986 -93.2261 31° Northeast 239 275 5,700 2,323 Climbing Minneapolis Center
Wed 04:52:00 PM 45.0536 -92.5709 68° East  Level FlightAware Approximate
Wed 04:52:06 PM 45.0303 -93.1275 66° East 273 314 8,300  Level Minneapolis Center
Wed 04:53:00 PM 45.0980 -92.4078 70° East  Level FlightAware Approximate
Wed 04:53:08 PM 45.0656 -93.0211 65° Northeast 295 339 10,700  Level Minneapolis Center
Wed 04:54:00 PM 45.1354 -92.2419 70° East  Level FlightAware Approximate
Wed 04:54:10 PM 45.1069 -92.8953 65° Northeast 351 404 12,300  Level Minneapolis Center
Wed 04:55:12 PM 45.1586 -92.7358 65° Northeast 372 428 14,800 2,160 Climbing Minneapolis Center
Wed 04:56:15 PM 45.2044 -92.5961 65° Northeast 390 449 16,800 1,776 Climbing Minneapolis Center
Wed 04:57:17 PM 45.2506 -92.4522 65° Northeast 400 460 18,500 1,694 Climbing Minneapolis Center
Wed 04:58:19 PM 45.2978 -92.3036 66° East 411 473 20,300 1,581 Climbing Minneapolis Center
Wed 05:00:23 PM 45.3475 -91.9606 78° East 445 512 23,400 1,581 Climbing Minneapolis Center
Wed 05:01:25 PM 45.3769 -91.7472 79° East 456 525 25,200 1,392 Climbing Minneapolis Center
Wed 05:02:28 PM 45.4006 -91.5681 79° East 460 529 26,300 1,008 Climbing Minneapolis Center
Wed 05:03:30 PM 45.4253 -91.3828 79° East 472 543 27,300 968 Climbing Minneapolis Center
Wed 05:04:32 PM 45.4514 -91.1858 79° East 483 556 28,300 919 Climbing Minneapolis Center
Wed 05:05:34 PM 45.4614 -90.9919 86° East 490 564 29,200 968 Climbing Minneapolis Center
Wed 05:06:36 PM 45.4100 -90.8094 112° Southeast 495 570 30,300 1,065 Climbing Minneapolis Center
Wed 05:07:38 PM 45.3531 -90.6306 114° Southeast 499 574 31,400 1,065 Climbing Minneapolis Center
Wed 05:08:40 PM 45.2872 -90.4192 114° Southeast 492 566 32,500 774 Climbing Minneapolis Center
Wed 05:09:42 PM 45.2317 -90.2425 114° Southeast 491 565 33,000 242 Climbing Minneapolis Center
Wed 05:10:44 PM 45.1742 -90.0656 115° Southeast 495 570 33,000  Level Minneapolis Center
Wed 05:11:46 PM 45.1172 -89.8889 114° Southeast 495 570 33,000  Level Minneapolis Center
Wed 05:12:48 PM 45.0775 -89.6881 106° East 503 579 33,000  Level Minneapolis Center
Wed 05:13:50 PM 45.0639 -89.4947 96° East 496 571 33,000  Level Minneapolis Center
Wed 05:14:53 PM 45.0506 -89.3006 95° East 496 571 33,000  Level Minneapolis Center
Wed 05:15:55 PM 45.0339 -89.0753 96° East 494 568 33,000  Level Minneapolis Center
Wed 05:16:57 PM 45.0192 -88.8828 96° East 493 567 33,000  Level Minneapolis Center
Wed 05:17:59 PM 45.0058 -88.6869 95° East 497 572 33,000  Level Minneapolis Center
Wed 05:19:01 PM 44.9911 -88.4931 96° East 496 571 33,000  Level Minneapolis Center
Wed 05:20:03 PM 44.9761 -88.2978 96° East 498 573 33,000  Level Minneapolis Center
Wed 05:21:05 PM 44.9572 -88.0803 97° East 497 572 33,000  Level Minneapolis Center
Wed 05:22:07 PM 44.9422 -87.8878 96° East 496 571 33,000  Level Minneapolis Center
Wed 05:23:09 PM 44.9261 -87.6950 97° East 495 570 33,000  Level Minneapolis Center
Wed 05:24:11 PM 44.9094 -87.5022 97° East 497 572 33,000  Level Minneapolis Center
Wed 05:25:13 PM 44.8919 -87.3083 97° East 500 575 33,000  Level Minneapolis Center
Wed 05:26:15 PM 44.8717 -87.0786 97° East 493 567 33,000  Level Minneapolis Center
Wed 05:27:18 PM 44.8533 -86.8869 98° East 495 570 33,000  Level Minneapolis Center
Wed 05:28:20 PM 44.8389 -86.7131 97° East 496 571 33,000  Level Minneapolis Center
Wed 05:29:22 PM 44.8192 -86.5178 98° East 501 577 33,000  Level Minneapolis Center
Wed 05:30:24 PM 44.7969 -86.2861 98° East 499 574 33,000  Level Minneapolis Center
Wed 05:31:26 PM 44.7794 -86.0947 97° East 496 571 33,000  Level Minneapolis Center
Wed 05:32:28 PM 44.7594 -85.9014 98° East 498 573 33,000  Level Minneapolis Center
Wed 05:33:30 PM 44.7403 -85.7097 98° East 496 571 33,000  Level Minneapolis Center
Wed 05:34:32 PM 44.7206 -85.5197 98° East 497 572 33,000  Level Minneapolis Center
Wed 05:35:34 PM 44.6964 -85.2892 98° East 498 573 33,000  Level Minneapolis Center
Wed 05:36:36 PM 44.6758 -85.0972 98° East 498 573 33,000  Level Minneapolis Center
Wed 05:37:38 PM 44.6561 -84.9067 98° East 495 570 33,000  Level Minneapolis Center
Wed 05:38:41 PM 44.6347 -84.7147 99° East 498 573 33,000  Level Minneapolis Center
Wed 05:39:44 PM 44.6133 -84.5228 99° East 500 575 33,000  Level Minneapolis Center
Wed 05:40:46 PM 44.5864 -84.2917 99° East 501 577 33,000  Level Minneapolis Center
Wed 05:41:48 PM 44.5647 -84.1017 99° East 498 573 33,000  Level Minneapolis Center
Wed 05:42:50 PM 44.5422 -83.9094 99° East 499 574 33,000  Level Minneapolis Center
Wed 05:43:52 PM 44.5200 -83.7175 99° East 500 575 33,000  Level Minneapolis Center
Wed 05:44:54 PM 44.4958 -83.5261 100° East 501 577 33,000  Level Minneapolis Center
Wed 05:45:56 PM 44.4719 -83.3328 100° East 503 579 33,000  Level Minneapolis Center
Wed 05:46:58 PM 44.4436 -83.0958 99° East 513 590 33,000  Level Minneapolis Center
Wed 05:48:00 PM 44.4175 -82.8983 100° East 517 595 33,000  Level Minneapolis Center
Wed 05:49:02 PM 44.3928 -82.6992 100° East 519 597 33,000  Level Minneapolis Center
Wed 05:50:05 PM 44.3669 -82.5036 100° East 517 595 33,000  Level Minneapolis Center
Wed 05:51:04 PM 44.3167 -82.2667 106° East 520 598 33,000  Level Toronto Center
Wed 05:52:04 PM 44.2667 -82.0833 111° Southeast 510 587 33,000  Level Toronto Center
Wed 05:53:04 PM 44.2333 -81.9167 106° East 510 587 33,000  Level Toronto Center
Wed 05:54:04 PM 44.1833 -81.7333 111° Southeast 500 575 33,000  Level Toronto Center
Wed 05:55:04 PM 44.1500 -81.5333 103° East 500 575 33,000  Level Toronto Center
Wed 05:56:04 PM 44.1000 -81.3500 111° Southeast 500 575 33,000  Level Toronto Center
Wed 05:57:04 PM 44.0667 -81.1667 104° East 510 587 33,000  Level Toronto Center
Wed 05:58:04 PM 44.0500 -80.9500 96° East 520 598 33,000  Level Toronto Center
Wed 05:59:04 PM 44.0500 -80.7667 90° East 520 598 33,000  Level Toronto Center
Wed 06:00:04 PM 44.0333 -80.5667 97° East 520 598 33,000  Level Toronto Center
Wed 06:01:04 PM 44.0333 -80.3500 90° East 520 598 33,000  Level Toronto Center
Wed 06:02:04 PM 44.0167 -80.1500 97° East 520 598 33,000  Level Toronto Center
Wed 06:03:04 PM 44.0000 -79.9500 97° East 520 598 33,000  Level Toronto Center
Wed 06:04:04 PM 43.9667 -79.7667 104° East 520 598 33,000  Level Toronto Center
Wed 06:05:04 PM 43.9333 -79.5667 103° East 500 575 33,000  Level Toronto Center
Wed 06:06:04 PM 43.9000 -79.3833 104° East 500 575 33,000  Level Toronto Center
Wed 06:07:04 PM 43.8667 -79.2000 104° East 500 575 33,000  Level Toronto Center
Wed 06:08:04 PM 43.8500 -79.0167 97° East 510 587 33,000  Level Toronto Center
Wed 06:09:04 PM 43.8167 -78.8167 103° East 510 587 33,000  Level Toronto Center
Wed 06:10:04 PM 43.8167 -78.6000 90° East 520 598 33,000  Level Toronto Center
Wed 06:11:04 PM 43.7833 -78.4167 104° East 520 598 33,000  Level Toronto Center
Wed 06:12:04 PM 43.7833 -78.2000 90° East 530 610 33,000  Level Toronto Center
Wed 06:13:04 PM 43.7833 -78.0000 90° East 530 610 33,000  Level Toronto Center
Wed 06:14:04 PM 43.7667 -77.8167 97° East 520 598 33,000  Level Toronto Center
Wed 06:15:04 PM 43.7667 -77.6000 90° East 520 598 33,000  Level Toronto Center
Wed 06:16:04 PM 43.7667 -77.4167 90° East 520 598 33,000  Level Toronto Center
Wed 06:17:04 PM 43.7333 -77.2167 103° East 520 598 33,000  Level Toronto Center
Wed 06:18:04 PM 43.7333 -77.0000 90° East 520 598 33,000  Level Toronto Center
Wed 06:20:17 PM 43.7053 -76.6367 96° East 509 586 33,000 -278 Level Boston Center
Wed 06:21:18 PM 43.6228 -76.4358 120° Southeast 498 573 32,100 -1,587 Descending Boston Center
Wed 06:22:18 PM 43.5575 -76.2711 119° Southeast 493 567 29,800 -2,100 Descending Boston Center
Wed 06:23:18 PM 43.4939 -76.1094 118° Southeast 488 562 27,900 -1,700 Descending Boston Center
Wed 06:24:18 PM 43.4342 -75.9544 118° Southeast 477 549 26,400 -1,900 Descending Boston Center
Wed 06:25:18 PM 43.3806 -75.7969 115° Southeast 466 536 24,100 -1,750 Descending Boston Center
Wed 06:26:18 PM 43.3311 -75.6372 113° Southeast 454 522 22,900 -1,100 Descending Boston Center
Wed 06:27:18 PM 43.2831 -75.4864 114° Southeast 442 509 21,900 -950 Descending Boston Center
Wed 06:28:18 PM 43.2369 -75.3331 112° Southeast 442 509 21,000 -950 Descending Boston Center
Wed 06:29:18 PM 43.1944 -75.1942 113° Southeast 442 509 20,000 -1,000 Descending Boston Center
Wed 06:30:18 PM 43.1481 -75.0469 113° Southeast 437 503 19,000 -1,350 Descending Boston Center
Wed 06:31:18 PM 43.1031 -74.9056 114° Southeast 419 482 17,300 -2,268 Descending Boston Center
Wed 06:32:25 PM 43.0483 -74.7303 113° Southeast 398 458 14,200 -2,578 Descending Boston Center
Wed 06:33:26 PM 43.0053 -74.5922 113° Southeast 391 450 11,800 -1,574 Descending Boston Center
Wed 06:34:27 PM 42.9639 -74.4658 114° Southeast 369 425 11,000 -696 Descending Boston Center
Wed 06:35:18 PM 42.9492 -74.3578 101° East 351 404 10,500 -1,135 Descending Boston Center
Wed 06:36:18 PM 42.9444 -74.2525 93° East 320 368 8,900 -1,900 Descending Boston Center
Wed 06:37:18 PM 42.9403 -74.1275 93° East 305 351 6,700 -2,000 Descending Boston Center
Wed 06:38:18 PM 42.9353 -74.0253 94° East 305 351 4,900 -1,800 Descending Boston Center
Wed 06:39:18 PM 42.9308 -73.9061 93° East 293 337 3,100 -1,200 Descending Boston Center
Wed 06:40:18 PM 42.9089 -73.8292 111° Southeast 274 315 2,500 -353 Descending Boston Center
Wed 06:41:17 PM 42.8636 -73.7800 141° Southeast 227 261 2,400 -102 Descending Boston Center

Login

Don't have an account? Register now (free) for customized features, flight alerts, and more!